4IS6 weather

Hattan Farms Airport
Minonk, Illinois, United States

Public forecast

Using degrees Fahrenheit for public forecast. Weather courtesy of forecast.io.

METAR (pilot weather report)

Closest report is Marshall County Airport, 13.2 nm (24.4 km) WNW. Retrieved 2019/06/16 00:35 UTC (0 seconds ago):

KC75 160035Z AUTO 18003KT 10SM CLR 22/20 A2973 RMK AO2 T02240195

TAF (pilot weather forecast)

Forecast is more than 12 hours old.

Closest forecast is Central Illinois Regional Airport at Bloomington-Normal, 28.8 nm (53.3 km) SSE. Retrieved 2019/06/15 00:24 UTC (1 day ago):

TAF KBMI 152321Z 1600/1624 22007KT P6SM SCT009 OVC012 TEMPO 1600/1602 BKN009 FM160500 VRB04KT 5SM SHRA BR VCTS BKN025CB TEMPO 1605/1607 2SM -TSRA BKN012 OVC025CB FM160900 15003KT P6SM VCSH OVC006 FM161800 30005KT P6SM BKN018 FM162100 01004KT P6SM VCSH SCT025 BKN250